Flight Track Log - Related Links

Times and Time Zones

All times are in EDT time to prevent confusion due to time zone crossing. See the DAL374 flight status page for this flight to view local times or setup timezone preferences in your user account.


Time Position Orientation Groundspeed Altitude Reporting Facility
EDT Latitude Longitude Course Direction KTS MPH feet Rate Location/Type
Tue 08:41:56 PM 33.6328 -84.4778 48° Northeast 473 544 2,600  Level Atlanta Center
Tue 08:42:56 PM 33.6033 -84.5475 243° Southwest 304 350 3,900 1,900 Climbing Atlanta Center
Tue 08:43:56 PM 33.5406 -84.5847 206° Southwest 263 303 6,400 3,000 Climbing Atlanta Center
Tue 08:44:56 PM 33.4675 -84.5617 165° South 285 328 9,900 2,400 Climbing Atlanta Center
Tue 08:45:00 PM 33.7778 -83.9317 54° Northeast  Level FlightAware Approximate
Tue 08:45:56 PM 33.4575 -84.4622 97° East 249 287 11,200  Level Atlanta Center
Tue 08:46:00 PM 33.8413 -83.8258 54° Northeast  Level FlightAware Approximate
Tue 08:46:56 PM 33.4536 -84.3550 92° East 296 341 12,500  Level Atlanta Center
Tue 08:47:00 PM 33.9103 -83.7252 48° Northeast  Level FlightAware Approximate
Tue 08:47:56 PM 33.4997 -84.2481 63° Northeast 358 412 14,100  Level Atlanta Center
Tue 08:48:56 PM 33.5958 -84.1833 29° Northeast 364 419 16,300 2,100 Climbing Atlanta Center
Tue 08:49:56 PM 33.6942 -84.1211 28° Northeast 384 442 18,300 1,700 Climbing Atlanta Center
Tue 08:50:56 PM 33.7714 -84.0214 47° Northeast 399 459 19,700 1,450 Climbing Atlanta Center
Tue 08:51:56 PM 33.8339 -83.9036 57° Northeast 404 465 21,200 1,250 Climbing Atlanta Center
Tue 08:52:56 PM 33.8961 -83.7811 59° Northeast 422 486 22,200 1,200 Climbing Atlanta Center
Tue 08:53:56 PM 33.9647 -83.6581 56° Northeast 438 504 23,600 1,350 Climbing Atlanta Center
Tue 08:54:56 PM 34.0417 -83.5400 52° Northeast 444 511 24,900 700 Climbing Atlanta Center
Tue 08:55:56 PM 34.1161 -83.4189 53° Northeast 449 517 25,000 50 Climbing Atlanta Center
Tue 08:56:56 PM 34.1886 -83.3031 53° Northeast 443 510 25,000  Level Atlanta Center
Tue 08:57:56 PM 34.2692 -83.1742 53° Northeast 443 510 25,000  Level Atlanta Center
Tue 08:58:56 PM 34.3414 -83.0525 54° Northeast 443 510 25,000  Level Atlanta Center
Tue 08:59:56 PM 34.4156 -82.9383 52° Northeast 433 498 25,000  Level Atlanta Center
Tue 09:00:56 PM 34.4853 -82.8242 53° Northeast 428 493 25,000  Level Atlanta Center
Tue 09:01:56 PM 34.5531 -82.7147 53° Northeast 414 476 25,000  Level Atlanta Center
Tue 09:02:56 PM 34.6250 -82.6050 51° Northeast 414 476 25,000  Level Atlanta Center
Tue 09:03:56 PM 34.6842 -82.5031 55° Northeast 414 476 25,000  Level Atlanta Center
Tue 09:04:56 PM 34.7639 -82.3675 54° Northeast 427 491 25,000  Level Atlanta Center
Tue 09:05:56 PM 34.8414 -82.2469 52° Northeast 433 498 25,000  Level Atlanta Center
Tue 09:06:56 PM 34.9003 -82.1469 54° Northeast 446 513 25,000  Level Atlanta Center
Tue 09:07:56 PM 34.9919 -82.0003 53° Northeast 451 519 25,000  Level Atlanta Center
Tue 09:08:56 PM 35.0650 -81.8767 54° Northeast 456 525 25,000  Level Atlanta Center
Tue 09:09:56 PM 35.1314 -81.7456 58° Northeast 451 519 25,000  Level Atlanta Center
Tue 09:10:56 PM 35.2019 -81.6164 56° Northeast 451 519 25,000  Level Atlanta Center
Tue 09:11:56 PM 35.2703 -81.4847 58° Northeast 457 526 25,000  Level Atlanta Center
Tue 09:12:56 PM 35.3383 -81.3503 58° Northeast 457 526 25,000  Level Atlanta Center
Tue 09:13:56 PM 35.4042 -81.2181 59° Northeast 457 526 25,000  Level Atlanta Center
Tue 09:14:56 PM 35.4761 -81.0831 57° Northeast 466 536 25,000  Level Atlanta Center
Tue 09:15:56 PM 35.5458 -80.9503 57° Northeast 461 531 25,000  Level Atlanta Center
Tue 09:16:56 PM 35.6156 -80.8200 57° Northeast 461 531 25,000  Level Atlanta Center
Tue 09:17:56 PM 35.6831 -80.6869 58° Northeast 461 531 25,000  Level Atlanta Center
Tue 09:18:56 PM 35.7522 -80.5561 57° Northeast 461 531 25,000  Level Atlanta Center
Tue 09:19:56 PM 35.8192 -80.4200 59° Northeast 461 531 25,000  Level Atlanta Center
Tue 09:20:56 PM 35.8864 -80.2917 57° Northeast 461 531 25,000  Level Atlanta Center
Tue 09:23:20 PM 36.0397 -79.9922 58° Northeast 457 526 25,000  Level Washington Center
Tue 09:24:18 PM 36.1133 -79.8628 55° Northeast 457 526 25,000  Level Washington Center
Tue 09:25:19 PM 36.1933 -79.7178 56° Northeast 457 526 25,000  Level Washington Center
Tue 09:26:20 PM 36.2600 -79.6028 54° Northeast 457 526 25,000  Level Washington Center
Tue 09:27:18 PM 36.3375 -79.4622 56° Northeast 451 519 25,000  Level Washington Center
Tue 09:28:18 PM 36.4086 -79.3317 56° Northeast 451 519 25,000  Level Washington Center
Tue 09:29:19 PM 36.4747 -79.2161 55° Northeast 451 519 25,000  Level Washington Center
Tue 09:30:20 PM 36.5561 -79.0775 54° Northeast 451 519 25,000  Level Washington Center
Tue 09:31:18 PM 36.6264 -78.9514 55° Northeast 445 512 25,000  Level Washington Center
Tue 09:32:19 PM 36.6969 -78.8144 57° Northeast 451 519 25,000  Level Washington Center
Tue 09:33:20 PM 36.7669 -78.6878 55° Northeast 451 519 25,000  Level Washington Center
Tue 09:34:18 PM 36.8392 -78.5583 55° Northeast 451 519 25,000  Level Washington Center
Tue 09:35:19 PM 36.9089 -78.4311 56° Northeast 451 519 25,000 -148 Level Washington Center
Tue 09:36:20 PM 36.9764 -78.3114 55° Northeast 451 519 24,700 -595 Descending Washington Center
Tue 09:37:20 PM 37.0658 -78.2261 37° Northeast 426 490 23,800 -1,017 Descending Washington Center
Tue 09:38:18 PM 37.1658 -78.1408 34° Northeast 407 468 22,700 -908 Descending Washington Center
Tue 09:39:19 PM 37.2572 -78.0631 34° Northeast 395 455 22,000 -344 Descending Washington Center
Tue 09:40:20 PM 37.3486 -77.9850 34° Northeast 390 449 22,000  Level Washington Center
Tue 09:41:20 PM 37.4397 -77.9042 35° Northeast 390 449 22,000  Level Washington Center
Tue 09:42:18 PM 37.5308 -77.8256 34° Northeast 390 449 22,000 -51 Level Washington Center
Tue 09:43:18 PM 37.6242 -77.7472 34° Northeast 390 449 21,900 -496 Descending Washington Center
Tue 09:44:19 PM 37.7131 -77.6656 36° Northeast 395 455 21,000 -950 Descending Washington Center
Tue 09:45:18 PM 37.8022 -77.5867 35° Northeast 395 455 20,000 -1,008 Descending Washington Center
Tue 09:46:18 PM 37.8908 -77.5100 34° Northeast 390 449 19,000 -1,289 Descending Washington Center
Tue 09:47:19 PM 37.9778 -77.4358 34° Northeast 385 443 17,400 -1,918 Descending Washington Center
Tue 09:48:20 PM 38.0622 -77.3639 34° Northeast 380 437 15,100 -2,231 Descending Washington Center
Tue 09:49:20 PM 38.1444 -77.2894 35° Northeast 370 426 12,900 -2,390 Descending Washington Center
Tue 09:50:18 PM 38.2269 -77.2172 35° Northeast 365 420 10,400 -1,462 Descending Washington Center
Tue 09:51:19 PM 38.3028 -77.1500 35° Northeast 351 404 10,000 -1,050 Descending Washington Center
Tue 09:52:18 PM 38.3781 -77.1411 North 300 345 8,300 -2,017 Descending Washington Center
Tue 09:53:18 PM 38.4533 -77.1267 North 282 325 6,000 -2,132 Descending Washington Center
Tue 09:54:19 PM 38.5286 -77.1122 North 277 319 4,000 -1,082 Descending Washington Center
Tue 09:55:20 PM 38.5975 -77.0953 11° North 270 311 3,800 -492 Descending Washington Center
Tue 09:56:21 PM 38.6667 -77.0667 18° North 224 258 3,000 -787 Descending Potomac TRACON
Tue 09:57:22 PM 38.7167 -77.0333 27° Northeast 197 227 2,200 -694 Descending Potomac TRACON
Tue 09:58:22 PM 38.7667 -77.0333 360° North 173 199 1,600 -750 Descending Potomac TRACON
Tue 09:59:22 PM 38.8000 -77.0333 360° North 147 169 700 -900 Descending Potomac TRACON

Login

Don't have an account? Register now (free) for customized features, flight alerts, and more!